Time;durP1;ratioP1;P1;durP2;ratioP2;P2;SDS_P1;SDS_P2;PMS_P1;PMS_P2;Temp;Humidity;BMP_temperature;BMP_pressure;BME280_temperature;BME280_humidity;BME280_pressure;Samples;Min_cycle;Max_cycle;Signal;HPM_P1;HPM_P2
2021/03/19 00:02:06;;;;;;;60.88;55.78;;;2.00;99.90;;;;;;5027685;28;20038;-71
2021/03/19 00:04:32;;;;;;;64.75;59.00;;;2.00;99.90;;;;;;5013359;28;20025;-71
2021/03/19 00:06:57;;;;;;;58.72;53.17;;;2.00;99.90;;;;;;5027591;28;20025;-71
2021/03/19 00:09:23;;;;;;;52.10;47.50;;;1.90;99.90;;;;;;5026583;28;20483;-71
2021/03/19 00:11:49;;;;;;;67.40;61.85;;;1.90;99.90;;;;;;5009647;28;20065;-70
2021/03/19 00:14:14;;;;;;;57.10;51.63;;;1.90;99.90;;;;;;5006608;28;20054;-71
2021/03/19 00:16:40;;;;;;;65.28;59.53;;;1.90;99.90;;;;;;5022205;28;20487;-70
2021/03/19 00:19:07;;;;;;;79.55;73.30;;;1.90;99.90;;;;;;5014125;28;20369;-70
2021/03/19 00:21:34;;;;;;;79.05;72.55;;;2.00;99.90;;;;;;5021148;28;20092;-71
2021/03/19 00:23:59;;;;;;;77.88;71.68;;;2.00;99.90;;;;;;5019698;28;20531;-71
2021/03/19 00:26:25;;;;;;;68.38;62.20;;;2.00;99.90;;;;;;5008456;28;20029;-70
2021/03/19 00:28:52;;;;;;;74.75;68.47;;;2.00;99.90;;;;;;5033633;28;20539;-71
2021/03/19 00:31:18;;;;;;;69.38;62.58;;;2.00;99.90;;;;;;5020931;28;20072;-71
2021/03/19 00:33:44;;;;;;;75.32;68.00;;;1.90;99.90;;;;;;5020280;28;20021;-70
2021/03/19 00:36:09;;;;;;;83.45;75.75;;;1.80;99.90;;;;;;5026948;28;20125;-70
2021/03/19 00:38:35;;;;;;;82.85;74.78;;;1.80;99.90;;;;;;4999978;28;20433;-70
2021/03/19 00:41:01;;;;;;;99.88;91.05;;;1.70;99.90;;;;;;5032728;28;20060;-70
2021/03/19 00:43:26;;;;;;;90.32;81.70;;;1.80;99.90;;;;;;5033559;28;20029;-70
2021/03/19 00:45:52;;;;;;;99.07;90.32;;;1.70;99.90;;;;;;5000753;28;20041;-71
2021/03/19 00:48:18;;;;;;;79.25;71.95;;;1.70;99.90;;;;;;5012443;28;20022;-72
2021/03/19 00:50:43;;;;;;;65.05;58.58;;;1.80;99.90;;;;;;5011983;28;20022;-71
2021/03/19 00:53:10;;;;;;;64.32;58.35;;;1.80;99.90;;;;;;5012532;28;20550;-70
2021/03/19 00:55:37;;;;;;;87.50;80.15;;;1.90;99.90;;;;;;5014087;28;20105;-70
2021/03/19 00:58:03;;;;;;;96.40;88.03;;;1.90;99.90;;;;;;5014008;28;20026;-71
2021/03/19 01:00:31;;;;;;;95.95;88.10;;;1.90;99.90;;;;;;5013282;28;20040;-72
2021/03/19 01:02:56;;;;;;;102.97;93.78;;;1.90;99.90;;;;;;5013397;28;20022;-72
2021/03/19 01:05:28;;;;;;;85.65;79.15;;;1.90;99.90;;;;;;5013355;28;20032;-71
2021/03/19 01:07:54;;;;;;;72.80;66.28;;;2.00;99.90;;;;;;5013714;28;20026;-71
2021/03/19 01:10:38;;;;;;;78.75;72.22;;;2.00;99.90;;;;;;5025936;28;20041;-71
2021/03/19 01:13:04;;;;;;;74.10;67.70;;;2.00;99.90;;;;;;5012271;28;20026;-70
2021/03/19 01:15:31;;;;;;;76.55;69.18;;;2.00;99.90;;;;;;5012845;28;20076;-71
2021/03/19 01:17:56;;;;;;;88.13;80.05;;;2.00;99.90;;;;;;5013220;28;20076;-71
2021/03/19 01:20:24;;;;;;;73.25;66.90;;;1.90;99.90;;;;;;5013000;28;20026;-71
2021/03/19 01:22:50;;;;;;;69.10;62.13;;;2.00;99.90;;;;;;5011791;28;20469;-71
2021/03/19 01:25:18;;;;;;;85.30;78.30;;;2.00;99.90;;;;;;5012987;28;20510;-71
2021/03/19 01:27:45;;;;;;;93.97;86.07;;;2.00;99.90;;;;;;5012932;28;20022;-72
2021/03/19 01:30:15;;;;;;;80.97;72.53;;;1.90;99.90;;;;;;5012885;28;20022;-72
2021/03/19 01:32:41;;;;;;;92.35;83.65;;;1.90;99.90;;;;;;5012755;28;20052;-72
2021/03/19 01:35:07;;;;;;;79.78;69.90;;;1.90;99.90;;;;;;5001600;28;20058;-72
2021/03/19 01:37:32;;;;;;;95.65;86.82;;;1.90;99.90;;;;;;5006297;28;20082;-72
2021/03/19 01:39:58;;;;;;;94.38;85.35;;;1.80;99.90;;;;;;5004445;28;20030;-72
2021/03/19 01:42:24;;;;;;;89.97;82.03;;;1.80;99.90;;;;;;5004176;28;20105;-71
2021/03/19 01:45:08;;;;;;;99.22;89.35;;;1.80;99.90;;;;;;5021035;28;20054;-72
2021/03/19 01:48:11;;;;;;;88.45;80.60;;;1.80;99.90;;;;;;4999045;28;20357;-72
2021/03/19 01:51:15;;;;;;;92.65;85.20;;;1.90;99.90;;;;;;5011131;28;20028;-72
2021/03/19 01:54:18;;;;;;;87.75;79.85;;;1.90;99.90;;;;;;5012545;28;20539;-72
2021/03/19 01:57:21;;;;;;;97.60;89.60;;;2.00;99.90;;;;;;5012381;28;20506;-72
2021/03/19 02:00:23;;;;;;;102.55;93.43;;;1.90;99.90;;;;;;5012297;28;20025;-72
2021/03/19 02:03:27;;;;;;;85.05;77.25;;;1.90;99.90;;;;;;5011063;28;20038;-72
2021/03/19 02:06:29;;;;;;;83.85;76.50;;;1.90;99.90;;;;;;5012364;28;20517;-72
2021/03/19 02:09:32;;;;;;;86.30;78.05;;;1.90;99.90;;;;;;5012136;28;20032;-71
2021/03/19 02:12:35;;;;;;;71.22;64.32;;;1.90;99.90;;;;;;5010894;28;20507;-71
2021/03/19 02:15:38;;;;;;;74.32;67.20;;;1.90;99.90;;;;;;5012137;28;20029;-72
2021/03/19 02:18:41;;;;;;;93.72;86.43;;;1.90;99.90;;;;;;5009045;28;20384;-72
2021/03/19 02:21:44;;;;;;;86.32;79.72;;;1.80;99.90;;;;;;5011759;28;20540;-71
2021/03/19 02:24:52;;;;;;;91.43;83.55;;;1.80;99.90;;;;;;5010359;28;20033;-71
2021/03/19 02:27:36;;;;;;;;;;;1.80;99.90;;;;;;5017470;28;20500;-71
2021/03/19 02:30:39;;;;;;;87.80;81.15;;;1.80;99.90;;;;;;5011904;28;19912;-71
2021/03/19 02:33:04;;;;;;;106.53;98.43;;;1.80;99.90;;;;;;5019792;28;20053;-71
2021/03/19 02:35:30;;;;;;;99.35;91.15;;;1.70;99.90;;;;;;5031710;28;20060;-71
2021/03/19 02:37:56;;;;;;;79.22;72.63;;;1.70;99.90;;;;;;5022614;28;20022;-72
2021/03/19 02:40:23;;;;;;;67.10;60.78;;;1.70;99.90;;;;;;5025216;28;20080;-71
2021/03/19 02:42:50;;;;;;;61.55;54.50;;;1.80;99.90;;;;;;5019483;28;20057;-72
2021/03/19 02:45:20;;;;;;;73.22;62.22;;;1.90;99.90;;;;;;5031382;28;20729;-72
2021/03/19 02:47:45;;;;;;;76.75;68.28;;;1.80;99.90;;;;;;5023328;28;20480;-71
2021/03/19 02:50:12;;;;;;;74.97;68.30;;;1.70;99.90;;;;;;5011784;28;20037;-72
2021/03/19 02:52:40;;;;;;;71.38;64.78;;;1.70;99.90;;;;;;5020222;28;20029;-71
2021/03/19 02:55:13;;;;;;;68.63;62.20;;;1.80;99.90;;;;;;5018366;28;20057;-71
2021/03/19 02:57:39;;;;;;;84.40;77.47;;;1.80;99.90;;;;;;5031414;28;20037;-71
2021/03/19 03:00:07;;;;;;;65.95;59.85;;;1.70;99.90;;;;;;5031355;28;20018;-71
2021/03/19 03:02:34;;;;;;;90.55;83.53;;;1.60;99.90;;;;;;5029880;28;20064;-72
2021/03/19 03:04:59;;;;;;;71.88;66.07;;;1.70;99.90;;;;;;5028251;28;20428;-71
2021/03/19 03:07:28;;;;;;;72.60;65.93;;;1.70;99.90;;;;;;5011631;28;20152;-71
2021/03/19 03:09:55;;;;;;;70.43;63.83;;;1.70;99.90;;;;;;5024695;28;20052;-71
2021/03/19 03:12:23;;;;;;;80.80;73.95;;;1.80;99.90;;;;;;5019948;28;20026;-72
2021/03/19 03:14:49;;;;;;;83.55;77.25;;;1.80;99.90;;;;;;5031214;28;20029;-71
2021/03/19 03:17:14;;;;;;;84.18;75.38;;;1.80;99.90;;;;;;5016120;28;20053;-71
2021/03/19 03:19:40;;;;;;;64.80;58.72;;;1.70;99.90;;;;;;5011436;28;20036;-70
2021/03/19 03:22:07;;;;;;;64.28;58.42;;;1.80;99.90;;;;;;5011219;28;20488;-72
2021/03/19 03:24:32;;;;;;;78.70;72.20;;;1.60;99.90;;;;;;5010063;28;20088;-72
2021/03/19 03:26:58;;;;;;;85.22;78.60;;;1.60;99.90;;;;;;5011450;28;20436;-72
2021/03/19 03:29:25;;;;;;;64.40;58.17;;;1.50;99.90;;;;;;5011467;28;20117;-72
2021/03/19 03:31:52;;;;;;;59.78;53.83;;;1.60;99.90;;;;;;5011260;28;20121;-72
2021/03/19 03:34:18;;;;;;;84.82;77.07;;;1.70;99.90;;;;;;5011335;28;20104;-72
2021/03/19 03:36:44;;;;;;;67.65;61.45;;;1.60;99.90;;;;;;5011291;28;20488;-72
2021/03/19 03:39:23;;;;;;;83.38;76.47;;;1.60;99.90;;;;;;5014447;28;20033;-72
2021/03/19 03:41:49;;;;;;;74.90;68.63;;;1.60;99.90;;;;;;5014773;28;20122;-72
2021/03/19 03:44:16;;;;;;;67.95;62.40;;;1.60;99.90;;;;;;5014803;28;20109;-72
2021/03/19 03:46:44;;;;;;;69.57;63.88;;;1.50;99.90;;;;;;5014835;28;20030;-71
2021/03/19 03:49:12;;;;;;;65.90;60.25;;;1.50;99.90;;;;;;5021725;28;20022;-71
2021/03/19 03:51:38;;;;;;;57.83;52.45;;;1.60;99.90;;;;;;5034075;28;20033;-70
2021/03/19 03:54:04;;;;;;;55.33;50.90;;;1.60;99.90;;;;;;5034422;28;20375;-70
2021/03/19 03:56:30;;;;;;;47.45;44.08;;;1.60;99.90;;;;;;5034555;28;20033;-70
2021/03/19 03:58:56;;;;;;;47.00;43.95;;;1.50;99.90;;;;;;5033303;28;20028;-70
2021/03/19 04:01:22;;;;;;;38.13;35.58;;;1.50;99.90;;;;;;5034640;28;20025;-70
2021/03/19 04:03:48;;;;;;;42.70;39.40;;;1.40;99.90;;;;;;5033177;28;20398;-70
2021/03/19 04:06:13;;;;;;;38.72;35.88;;;1.50;99.90;;;;;;5019383;28;20117;-71
2021/03/19 04:08:39;;;;;;;55.78;51.97;;;1.50;99.90;;;;;;5014217;28;20496;-71
2021/03/19 04:11:08;;;;;;;55.03;51.60;;;1.40;99.90;;;;;;5014592;28;20041;-71
2021/03/19 04:13:34;;;;;;;49.40;46.17;;;1.50;99.90;;;;;;5014365;28;20030;-72
2021/03/19 04:16:01;;;;;;;56.83;53.15;;;1.40;99.90;;;;;;5012866;28;20056;-71
2021/03/19 04:18:27;;;;;;;50.47;47.00;;;1.30;99.90;;;;;;5014260;28;20495;-71
2021/03/19 04:20:55;;;;;;;39.05;36.40;;;1.40;99.90;;;;;;5028446;28;20100;-72
2021/03/19 04:23:23;;;;;;;53.90;50.50;;;1.40;99.90;;;;;;5033937;28;20544;-72
2021/03/19 04:25:49;;;;;;;49.80;46.65;;;1.40;99.90;;;;;;5018264;28;20068;-72
2021/03/19 04:28:18;;;;;;;39.65;36.53;;;1.30;99.90;;;;;;5014029;28;20053;-72
2021/03/19 04:30:45;;;;;;;49.97;46.70;;;1.40;99.90;;;;;;5013658;28;20464;-71
2021/03/19 04:33:20;;;;;;;53.28;50.05;;;1.40;99.90;;;;;;5013811;28;20076;-72
2021/03/19 04:35:50;;;;;;;47.33;44.25;;;1.30;99.90;;;;;;5014126;28;20056;-72
2021/03/19 04:38:17;;;;;;;49.50;46.38;;;1.20;99.90;;;;;;5013876;28;20084;-72
2021/03/19 04:40:45;;;;;;;56.75;53.15;;;1.20;99.90;;;;;;5013517;28;20029;-70
2021/03/19 04:43:12;;;;;;;61.13;57.20;;;1.20;99.90;;;;;;5000713;28;20396;-70
2021/03/19 04:45:40;;;;;;;47.75;44.25;;;1.20;99.90;;;;;;5013004;28;20076;-71
2021/03/19 04:48:06;;;;;;;55.03;51.47;;;1.10;99.90;;;;;;5013581;28;20026;-71
2021/03/19 04:50:32;;;;;;;48.15;44.90;;;1.10;99.90;;;;;;5012855;28;20030;-71
2021/03/19 04:52:58;;;;;;;47.90;44.53;;;1.10;99.90;;;;;;5013461;28;20018;-71
2021/03/19 04:55:23;;;;;;;52.78;49.42;;;1.20;99.90;;;;;;5013442;28;20036;-71
2021/03/19 04:57:49;;;;;;;19.40;16.08;;;1.20;99.90;;;;;;5013493;28;20033;-70
2021/03/19 05:00:15;;;;;;;33.00;30.48;;;1.30;99.90;;;;;;5006883;28;20023;-71
2021/03/19 05:02:44;;;;;;;53.70;50.08;;;1.30;99.90;;;;;;5017987;28;20223;-71
2021/03/19 05:05:17;;;;;;;52.65;49.17;;;1.30;99.90;;;;;;5033463;28;20025;-69
2021/03/19 05:07:42;;;;;;;58.58;54.70;;;1.20;99.90;;;;;;5032021;28;20475;-70
2021/03/19 05:10:09;;;;;;;49.67;46.10;;;1.20;99.90;;;;;;5032820;28;20033;-70
2021/03/19 05:12:34;;;;;;;50.60;46.88;;;1.10;99.90;;;;;;5032666;28;20030;-70
2021/03/19 05:15:00;;;;;;;60.83;56.92;;;1.10;99.90;;;;;;5031544;28;20026;-70
2021/03/19 05:17:29;;;;;;;53.95;50.08;;;1.10;99.90;;;;;;5015962;28;20104;-70
2021/03/19 05:19:55;;;;;;;53.75;49.85;;;1.10;99.90;;;;;;5013036;28;20028;-68
2021/03/19 05:22:21;;;;;;;62.78;58.58;;;1.00;99.90;;;;;;5012784;28;20479;-69
2021/03/19 05:24:46;;;;;;;52.15;48.45;;;1.00;99.90;;;;;;5013304;28;20029;-69
2021/03/19 05:27:12;;;;;;;69.13;64.40;;;1.00;99.90;;;;;;5012830;28;20038;-69
2021/03/19 05:29:37;;;;;;;51.33;47.65;;;1.00;99.90;;;;;;5012752;28;20025;-69
2021/03/19 05:32:04;;;;;;;60.17;56.05;;;1.00;99.90;;;;;;5012596;28;20022;-68
2021/03/19 05:34:29;;;;;;;55.50;51.80;;;1.00;99.90;;;;;;5012829;28;20041;-70
2021/03/19 05:36:55;;;;;;;64.30;59.83;;;1.00;99.90;;;;;;5012837;28;20030;-70
2021/03/19 05:39:20;;;;;;;62.15;57.78;;;0.90;99.90;;;;;;5012531;28;20066;-70
2021/03/19 05:41:46;;;;;;;67.70;63.17;;;0.90;99.90;;;;;;5012549;28;20034;-70
2021/03/19 05:44:25;;;;;;;74.65;69.75;;;0.90;99.90;;;;;;5013048;28;20030;-70
2021/03/19 05:47:00;;;;;;;58.05;53.85;;;0.90;99.90;;;;;;5011348;28;20029;-70
2021/03/19 05:49:29;;;;;;;59.80;55.13;;;0.90;99.90;;;;;;5012657;28;20030;-70
2021/03/19 05:51:58;;;;;;;60.55;56.55;;;1.00;99.90;;;;;;5012242;28;20496;-70
2021/03/19 05:54:30;;;;;;;56.92;52.95;;;1.10;99.90;;;;;;5012485;28;20033;-70
2021/03/19 05:57:04;;;;;;;50.05;46.20;;;1.10;99.90;;;;;;5012315;28;20061;-71
2021/03/19 05:59:46;;;;;;;52.22;48.42;;;1.10;99.90;;;;;;5012329;28;20025;-70
2021/03/19 06:02:31;;;;;;;46.63;43.25;;;1.10;99.90;;;;;;5012120;28;20488;-69
2021/03/19 06:05:12;;;;;;;53.03;49.50;;;1.10;99.90;;;;;;5012165;28;20056;-69
2021/03/19 06:07:48;;;;;;;48.10;44.83;;;1.10;99.90;;;;;;5012509;28;20033;-69
2021/03/19 06:10:20;;;;;;;56.65;52.95;;;1.10;99.90;;;;;;5012156;28;20277;-70
2021/03/19 06:12:52;;;;;;;56.30;52.75;;;1.10;99.90;;;;;;5012144;28;20075;-69
2021/03/19 06:15:30;;;;;;;49.85;46.47;;;1.10;99.90;;;;;;5012175;28;20029;-69
2021/03/19 06:18:00;;;;;;;62.55;58.72;;;1.20;99.90;;;;;;5009299;28;20022;-70
2021/03/19 06:20:27;;;;;;;57.45;53.72;;;1.30;99.90;;;;;;5012060;28;20093;-70
2021/03/19 06:23:16;;;;;;;49.42;46.15;;;1.30;99.90;;;;;;5016071;28;20025;-70
2021/03/19 06:25:56;;;;;;;57.22;53.53;;;1.30;99.90;;;;;;5016308;28;20487;-69
2021/03/19 06:28:32;;;;;;;43.00;40.03;;;1.30;99.90;;;;;;5010851;28;20117;-69
2021/03/19 06:31:33;;;;;;;51.13;47.72;;;1.40;99.90;;;;;;5011798;28;20439;-69
2021/03/19 06:34:13;;;;;;;65.72;61.83;;;1.40;99.90;;;;;;4990077;28;20035;-69
2021/03/19 06:36:53;;;;;;;40.08;37.03;;;1.40;99.90;;;;;;5009444;28;20037;-69
2021/03/19 06:39:43;;;;;;;43.25;40.17;;;1.40;99.90;;;;;;5011828;28;20034;-70
2021/03/19 06:42:20;;;;;;;33.65;31.15;;;1.50;99.90;;;;;;5011726;28;20381;-69
2021/03/19 06:45:15;;;;;;;66.80;62.70;;;1.60;99.90;;;;;;5012029;28;20048;-69
2021/03/19 06:47:49;;;;;;;63.92;59.95;;;1.50;99.90;;;;;;4996574;28;20038;-69
2021/03/19 06:50:24;;;;;;;44.80;41.58;;;1.50;99.90;;;;;;5010447;28;20034;-69
2021/03/19 06:52:51;;;;;;;51.97;48.05;;;1.60;99.90;;;;;;5011704;28;20026;-69
2021/03/19 06:55:37;;;;;;;50.53;46.60;;;1.70;99.90;;;;;;5011694;28;20748;-69
2021/03/19 06:58:03;;;;;;;58.25;54.05;;;1.80;99.90;;;;;;5010396;28;20042;-69
2021/03/19 07:00:46;;;;;;;44.10;40.70;;;1.90;99.90;;;;;;5011694;28;20369;-69
2021/03/19 07:04:03;;;;;;;43.47;39.78;;;1.90;99.90;;;;;;5011727;28;20086;-69
2021/03/19 07:06:41;;;;;;;38.40;34.72;;;1.80;99.90;;;;;;5011632;28;20065;-69
2021/03/19 07:09:23;;;;;;;37.60;34.03;;;1.80;99.90;;;;;;5010278;28;20076;-69
2021/03/19 07:11:56;;;;;;;40.85;37.17;;;1.70;99.90;;;;;;5011370;28;20484;-70
2021/03/19 07:14:42;;;;;;;34.88;31.33;;;1.80;99.90;;;;;;5015513;28;20029;-69
2021/03/19 07:17:25;;;;;;;36.10;32.08;;;1.90;99.90;;;;;;5016318;28;20078;-69
2021/03/19 07:20:24;;;;;;;51.22;46.75;;;2.00;99.90;;;;;;5015348;28;20121;-69
2021/03/19 07:22:55;;;;;;;49.97;45.60;;;2.00;99.90;;;;;;5001790;28;20391;-69
2021/03/19 07:25:47;;;;;;;38.40;34.60;;;2.20;99.90;;;;;;5014974;28;20026;-69
2021/03/19 07:28:45;;;;;;;50.13;45.70;;;2.40;99.90;;;;;;5014987;28;20101;-69
2021/03/19 07:31:30;;;;;;;40.13;36.08;;;2.30;99.90;;;;;;5014642;28;20022;-69
2021/03/19 07:34:33;;;;;;;49.72;45.28;;;2.30;99.90;;;;;;5016288;28;20104;-69
2021/03/19 07:37:41;;;;;;;42.55;38.22;;;2.20;99.90;;;;;;5034561;28;20026;-69
2021/03/19 07:40:13;;;;;;;36.80;32.70;;;2.20;99.90;;;;;;5034501;28;20679;-69
2021/03/19 07:43:16;;;;;;;42.17;38.28;;;2.10;99.90;;;;;;5008816;28;20483;-69
2021/03/19 07:45:56;;;;;;;37.55;33.83;;;2.00;99.90;;;;;;5004645;28;20046;-68
2021/03/19 07:48:48;;;;;;;38.72;34.85;;;1.90;99.90;;;;;;5014699;28;20121;-69
2021/03/19 07:51:41;;;;;;;36.35;32.70;;;1.80;99.90;;;;;;5013015;28;20045;-69
2021/03/19 07:54:38;;;;;;;36.83;33.08;;;1.80;99.90;;;;;;5026130;28;20026;-69
2021/03/19 07:57:27;;;;;;;44.38;40.35;;;1.90;99.90;;;;;;5014141;28;20026;-69
2021/03/19 08:00:05;;;;;;;37.92;33.95;;;2.00;99.90;;;;;;5014343;28;20041;-69
2021/03/19 08:02:47;;;;;;;34.17;29.33;;;2.00;99.90;;;;;;5014075;28;20400;-69
2021/03/19 08:05:24;;;;;;;31.90;27.58;;;2.00;99.90;;;;;;5014245;28;20026;-69
2021/03/19 08:08:02;;;;;;;40.90;36.75;;;1.90;99.90;;;;;;5013923;28;20430;-68
2021/03/19 08:10:30;;;;;;;38.92;35.38;;;2.00;99.90;;;;;;5011562;28;20022;-68
2021/03/19 08:13:32;;;;;;;36.63;33.03;;;2.10;99.90;;;;;;5013482;28;20488;-69
2021/03/19 08:16:23;;;;;;;40.10;36.33;;;2.10;99.90;;;;;;5008405;28;20396;-68
2021/03/19 08:19:41;;;;;;;36.85;33.53;;;2.30;99.90;;;;;;5013223;28;20727;-69
2021/03/19 08:22:30;;;;;;;36.08;32.67;;;2.40;99.90;;;;;;5013362;28;20040;-68
2021/03/19 08:25:07;;;;;;;29.60;26.60;;;2.40;99.90;;;;;;5007070;28;20025;-69
2021/03/19 08:27:44;;;;;;;32.17;29.02;;;2.20;99.90;;;;;;5012172;28;20396;-69
2021/03/19 08:30:37;;;;;;;27.23;24.30;;;2.30;99.90;;;;;;5013782;28;20021;-69
2021/03/19 08:33:55;;;;;;;30.60;27.52;;;2.50;99.90;;;;;;5008854;28;20515;-69
2021/03/19 08:36:46;;;;;;;32.75;29.80;;;2.60;99.90;;;;;;4983761;28;20049;-69
2021/03/19 08:39:35;;;;;;;25.35;22.77;;;2.70;99.90;;;;;;5010995;28;20504;-69
2021/03/19 08:42:10;;;;;;;24.02;21.00;;;2.80;99.90;;;;;;5013202;28;20041;-69
2021/03/19 08:44:38;;;;;;;22.30;20.23;;;2.80;99.90;;;;;;5012260;28;20026;-69
2021/03/19 08:47:13;;;;;;;23.75;21.30;;;2.80;99.90;;;;;;5012012;28;20559;-69
2021/03/19 08:49:48;;;;;;;20.58;18.30;;;2.90;99.90;;;;;;5013233;28;20416;-69
2021/03/19 08:52:25;;;;;;;25.15;22.58;;;2.90;99.90;;;;;;5013090;28;20022;-69
2021/03/19 08:55:15;;;;;;;20.88;17.98;;;3.00;99.90;;;;;;5013272;28;20022;-69
2021/03/19 08:57:43;;;;;;;24.50;22.00;;;3.00;99.90;;;;;;5009701;28;20038;-69
2021/03/19 09:00:35;;;;;;;24.60;22.23;;;3.00;99.90;;;;;;5013181;28;20033;-69
2021/03/19 09:03:40;;;;;;;22.48;19.63;;;3.00;99.90;;;;;;5012925;28;20500;-69
2021/03/19 09:06:08;;;;;;;22.00;19.70;;;3.00;99.90;;;;;;5013409;28;20112;-69
2021/03/19 09:08:51;;;;;;;20.63;17.27;;;3.00;99.90;;;;;;5013679;28;20105;-70
2021/03/19 09:11:23;;;;;;;20.13;16.42;;;3.00;99.90;;;;;;5013000;28;20030;-69
2021/03/19 09:14:30;;;;;;;21.95;17.65;;;2.90;99.90;;;;;;5011944;28;20163;-69
2021/03/19 09:16:56;;;;;;;20.23;16.05;;;2.90;99.90;;;;;;5011732;28;20037;-69
2021/03/19 09:19:28;;;;;;;18.70;16.20;;;3.20;99.90;;;;;;5010989;28;20033;-69
2021/03/19 09:21:54;;;;;;;19.40;16.48;;;3.00;99.90;;;;;;5011666;28;20030;-69
2021/03/19 09:24:25;;;;;;;19.48;15.38;;;3.10;99.90;;;;;;5011491;28;20037;-69
2021/03/19 09:26:53;;;;;;;17.80;15.63;;;2.90;99.90;;;;;;5003450;28;20022;-69
2021/03/19 09:29:19;;;;;;;18.15;14.95;;;2.80;99.90;;;;;;5010591;28;20032;-69
2021/03/19 09:31:50;;;;;;;18.20;15.05;;;2.90;99.90;;;;;;5010530;28;20026;-69
2021/03/19 09:34:39;;;;;;;16.80;13.65;;;3.00;99.90;;;;;;5010779;28;20387;-69
2021/03/19 09:37:10;;;;;;;15.65;12.75;;;3.30;99.90;;;;;;5011031;28;20621;-69
2021/03/19 09:40:08;;;;;;;16.55;14.75;;;3.60;99.90;;;;;;5012039;28;20022;-69
2021/03/19 09:42:49;;;;;;;17.05;14.35;;;3.50;99.90;;;;;;5012318;28;20026;-68
2021/03/19 09:45:22;;;;;;;17.15;15.20;;;3.50;99.90;;;;;;5012388;28;20025;-69
2021/03/19 09:48:10;;;;;;;15.88;13.98;;;3.50;99.90;;;;;;5012517;28;20097;-69
2021/03/19 09:50:36;;;;;;;14.60;13.00;;;3.50;99.90;;;;;;5012586;28;20022;-69
2021/03/19 09:53:07;;;;;;;16.60;13.30;;;3.40;99.90;;;;;;5012170;28;20025;-68
2021/03/19 09:55:44;;;;;;;13.93;12.43;;;3.40;99.90;;;;;;5012342;28;20026;-69
2021/03/19 09:58:31;;;;;;;13.93;12.25;;;3.30;99.90;;;;;;5012231;28;20472;-69
2021/03/19 10:01:04;;;;;;;13.88;12.43;;;3.30;99.90;;;;;;5012036;28;20033;-69
2021/03/19 10:03:42;;;;;;;15.07;13.48;;;3.60;99.90;;;;;;5012178;28;20033;-69
2021/03/19 10:06:47;;;;;;;17.50;14.75;;;4.00;99.90;;;;;;5012078;28;20057;-69
2021/03/19 10:09:17;;;;;;;16.13;14.40;;;4.10;99.90;;;;;;5012220;28;20026;-69
2021/03/19 10:12:03;;;;;;;14.13;12.63;;;4.20;99.90;;;;;;5011755;28;20025;-69
2021/03/19 10:14:38;;;;;;;14.27;12.05;;;4.30;99.90;;;;;;5012146;28;20025;-69
2021/03/19 10:17:14;;;;;;;13.95;11.43;;;4.20;99.90;;;;;;5011896;28;20038;-69
2021/03/19 10:19:42;;;;;;;12.55;11.05;;;3.90;99.90;;;;;;5011914;28;20030;-69
2021/03/19 10:22:09;;;;;;;13.48;12.00;;;3.70;99.90;;;;;;5014509;28;20091;-69
2021/03/19 10:24:36;;;;;;;13.57;11.40;;;3.50;99.90;;;;;;5026693;28;20030;-69
2021/03/19 10:27:13;;;;;;;14.73;11.55;;;3.20;99.90;;;;;;5011760;28;20022;-69
2021/03/19 10:29:44;;;;;;;14.40;12.73;;;2.90;99.90;;;;;;5011902;28;20022;-69
2021/03/19 10:32:16;;;;;;;11.88;10.68;;;2.70;99.90;;;;;;5011634;28;20018;-69
2021/03/19 10:34:50;;;;;;;11.90;10.70;;;2.70;99.90;;;;;;5011952;28;20022;-69
2021/03/19 10:37:38;;;;;;;11.35;10.20;;;2.80;99.90;;;;;;5011725;28;20029;-69
2021/03/19 10:40:15;;;;;;;10.90;9.68;;;3.00;99.90;;;;;;5011580;28;20520;-68
2021/03/19 10:42:50;;;;;;;11.10;9.50;;;3.10;99.90;;;;;;5011569;28;20034;-69
2021/03/19 10:45:32;;;;;;;9.60;8.60;;;3.40;99.90;;;;;;5011692;28;20026;-69
2021/03/19 10:48:37;;;;;;;11.05;9.82;;;3.40;99.90;;;;;;5013437;28;20026;-69
2021/03/19 10:51:25;;;;;;;10.98;9.52;;;3.50;99.90;;;;;;5013036;28;20109;-69
2021/03/19 10:53:56;;;;;;;10.85;9.85;;;3.70;99.90;;;;;;5024315;28;20476;-69
2021/03/19 10:56:24;;;;;;;11.05;9.90;;;3.80;99.90;;;;;;5015629;28;20033;-69
2021/03/19 10:58:54;;;;;;;11.73;10.32;;;3.70;99.90;;;;;;5015358;28;20109;-69
2021/03/19 11:01:39;;;;;;;11.60;10.40;;;3.90;99.90;;;;;;5015311;28;20022;-70
2021/03/19 11:04:34;;;;;;;11.48;10.32;;;3.90;99.90;;;;;;5014147;28;20101;-69
2021/03/19 11:07:24;;;;;;;11.90;9.90;;;3.90;99.90;;;;;;5035126;28;20117;-68
2021/03/19 11:10:04;;;;;;;9.90;8.90;;;4.00;99.90;;;;;;5031557;28;20048;-68
2021/03/19 11:12:41;;;;;;;10.40;8.88;;;3.90;99.90;;;;;;5033743;28;20029;-71
2021/03/19 11:15:27;;;;;;;9.68;8.35;;;4.10;99.90;;;;;;5035013;28;20025;-71
2021/03/19 11:18:15;;;;;;;10.10;9.10;;;3.90;99.90;;;;;;5012275;28;20128;-71
2021/03/19 11:20:43;;;;;;;10.05;8.82;;;4.00;99.90;;;;;;5015030;28;20038;-70
2021/03/19 11:23:25;;;;;;;9.40;8.45;;;4.10;99.90;;;;;;5021153;28;20025;-70
2021/03/19 11:25:53;;;;;;;9.60;8.45;;;4.20;99.90;;;;;;5018979;28;20026;-70
2021/03/19 11:28:34;;;;;;;10.35;9.35;;;4.20;99.90;;;;;;5015128;28;20384;-70
2021/03/19 11:31:13;;;;;;;10.63;9.55;;;4.30;99.90;;;;;;5014656;28;20025;-70
2021/03/19 11:33:51;;;;;;;10.90;9.80;;;4.30;99.90;;;;;;5014987;28;20018;-71
2021/03/19 11:36:16;;;;;;;11.52;9.88;;;4.40;99.90;;;;;;5014887;28;20492;-70
2021/03/19 11:38:42;;;;;;;10.75;9.65;;;4.50;99.90;;;;;;5013629;28;20080;-70
2021/03/19 11:41:27;;;;;;;10.93;9.52;;;4.30;99.90;;;;;;5014732;28;20113;-70
2021/03/19 11:43:52;;;;;;;10.75;9.65;;;4.40;99.90;;;;;;5014747;28;20509;-70
2021/03/19 11:46:21;;;;;;;10.23;9.13;;;4.30;99.90;;;;;;5014651;28;20057;-70
2021/03/19 11:48:48;;;;;;;10.75;9.65;;;4.20;99.90;;;;;;5014412;28;20028;-70
2021/03/19 11:51:17;;;;;;;9.68;8.65;;;4.20;99.90;;;;;;5014485;28;20105;-71
2021/03/19 11:53:44;;;;;;;11.68;9.32;;;4.30;99.90;;;;;;5014573;28;20109;-71
2021/03/19 11:56:10;;;;;;;9.35;8.40;;;4.70;99.90;;;;;;5014767;28;20034;-69
2021/03/19 11:58:36;;;;;;;10.35;9.18;;;4.90;99.90;;;;;;5014409;28;20030;-68
2021/03/19 12:01:04;;;;;;;9.20;8.32;;;4.50;99.90;;;;;;5014336;28;20045;-70
2021/03/19 12:03:36;;;;;;;9.48;8.40;;;4.60;99.90;;;;;;5014363;28;20044;-70
2021/03/19 12:06:04;;;;;;;9.57;8.68;;;4.60;99.90;;;;;;5013406;28;20030;-68
2021/03/19 12:08:31;;;;;;;11.05;8.80;;;5.40;99.90;;;;;;5014335;28;20109;-69
2021/03/19 12:10:58;;;;;;;9.48;8.48;;;6.00;99.90;;;;;;5014190;28;20033;-69
2021/03/19 12:13:24;;;;;;;8.88;7.95;;;6.10;99.90;;;;;;5014500;28;20026;-71
2021/03/19 12:15:50;;;;;;;9.13;8.23;;;5.80;99.90;;;;;;5014240;28;20030;-71
2021/03/19 12:18:20;;;;;;;10.43;8.75;;;5.20;99.90;;;;;;5014316;28;20076;-71
2021/03/19 12:20:46;;;;;;;9.45;8.35;;;5.00;99.90;;;;;;5014200;28;20109;-71
2021/03/19 12:23:12;;;;;;;9.48;8.52;;;4.80;99.90;;;;;;5020957;28;20029;-71
2021/03/19 12:25:39;;;;;;;11.35;9.70;;;4.70;99.90;;;;;;5020151;28;20029;-71
2021/03/19 12:28:06;;;;;;;9.77;8.70;;;5.20;99.90;;;;;;5007202;28;20026;-69
2021/03/19 12:30:31;;;;;;;10.05;8.30;;;6.10;99.90;;;;;;5008380;28;20022;-68
2021/03/19 12:32:57;;;;;;;9.15;8.23;;;6.20;99.90;;;;;;5013929;28;20200;-69
2021/03/19 12:35:27;;;;;;;9.50;8.45;;;6.10;99.90;;;;;;5012756;28;20026;-69
2021/03/19 12:37:52;;;;;;;9.93;8.38;;;6.10;99.90;;;;;;5013836;28;20384;-69
2021/03/19 12:40:20;;;;;;;10.30;8.73;;;7.10;99.90;;;;;;5013846;28;20025;-69
2021/03/19 12:42:47;;;;;;;12.95;8.98;;;7.60;99.90;;;;;;5012187;28;20026;-69
2021/03/19 12:45:13;;;;;;;11.13;8.85;;;7.60;99.90;;;;;;5012460;28;20026;-69
2021/03/19 12:47:38;;;;;;;9.43;8.30;;;6.80;99.90;;;;;;5013872;28;20080;-69
2021/03/19 12:50:05;;;;;;;10.18;8.95;;;5.70;99.90;;;;;;5012298;28;20032;-70
2021/03/19 12:52:30;;;;;;;11.38;9.73;;;5.50;99.90;;;;;;5013556;28;20029;-71
2021/03/19 12:54:56;;;;;;;10.38;9.27;;;5.40;99.90;;;;;;5013562;28;20030;-71
2021/03/19 12:57:21;;;;;;;9.95;8.15;;;5.20;99.90;;;;;;5013590;28;20034;-70
2021/03/19 12:59:47;;;;;;;10.88;9.00;;;4.90;99.90;;;;;;5013481;28;20029;-70
2021/03/19 13:02:12;;;;;;;16.52;10.00;;;4.70;99.90;;;;;;5011866;28;20033;-70
2021/03/19 13:04:39;;;;;;;10.82;8.63;;;4.90;99.90;;;;;;5013418;28;20030;-71
2021/03/19 13:07:08;;;;;;;11.60;9.20;;;5.50;99.90;;;;;;5013358;28;20034;-70
2021/03/19 13:09:35;;;;;;;9.20;8.10;;;6.60;99.90;;;;;;5013021;28;20045;-70
2021/03/19 13:12:00;;;;;;;8.52;7.63;;;7.00;99.90;;;;;;5012583;28;20025;-70
2021/03/19 13:14:29;;;;;;;9.85;8.55;;;7.20;99.90;;;;;;5013275;28;20506;-71
2021/03/19 13:16:55;;;;;;;9.52;7.65;;;8.30;99.90;;;;;;5013232;28;20029;-71
2021/03/19 13:19:21;;;;;;;11.77;8.40;;;8.40;99.90;;;;;;5013077;28;20026;-71